sensor_id;sensor_type;location;lat;lon;timestamp;pressure;altitude;pressure_sealevel;temperature;humidity
61384;BME280;63511;49.346;8.798;2023-05-02T00:02:10;100285.00;;;15.38;72.72
61384;BME280;63511;49.346;8.798;2023-05-02T00:04:36;100284.06;;;15.53;72.17
61384;BME280;63511;49.346;8.798;2023-05-02T00:07:04;100277.84;;;15.66;71.97
61384;BME280;63511;49.346;8.798;2023-05-02T00:09:31;100282.88;;;15.47;71.97
61384;BME280;63511;49.346;8.798;2023-05-02T00:11:57;100280.47;;;15.50;72.37
61384;BME280;63511;49.346;8.798;2023-05-02T00:14:24;100277.53;;;15.23;72.98
61384;BME280;63511;49.346;8.798;2023-05-02T00:16:50;100279.31;;;15.43;72.60
61384;BME280;63511;49.346;8.798;2023-05-02T00:19:17;100278.91;;;15.52;72.12
61384;BME280;63511;49.346;8.798;2023-05-02T00:21:45;100280.66;;;15.53;71.62
61384;BME280;63511;49.346;8.798;2023-05-02T00:24:14;100287.09;;;15.46;72.24
61384;BME280;63511;49.346;8.798;2023-05-02T00:26:40;100284.53;;;15.28;73.00
61384;BME280;63511;49.346;8.798;2023-05-02T00:29:07;100282.09;;;15.30;72.58
61384;BME280;63511;49.346;8.798;2023-05-02T00:31:33;100284.47;;;15.45;71.51
61384;BME280;63511;49.346;8.798;2023-05-02T00:34:00;100279.69;;;15.33;72.28
61384;BME280;63511;49.346;8.798;2023-05-02T00:36:27;100283.91;;;15.32;72.50
61384;BME280;63511;49.346;8.798;2023-05-02T00:38:54;100278.09;;;15.17;73.04
61384;BME280;63511;49.346;8.798;2023-05-02T00:41:22;100279.56;;;15.12;73.10
61384;BME280;63511;49.346;8.798;2023-05-02T00:43:49;100285.34;;;15.10;73.59
61384;BME280;63511;49.346;8.798;2023-05-02T00:46:15;100287.63;;;14.87;73.76
61384;BME280;63511;49.346;8.798;2023-05-02T00:48:42;100288.38;;;15.03;73.56
61384;BME280;63511;49.346;8.798;2023-05-02T00:51:09;100284.34;;;15.06;73.27
61384;BME280;63511;49.346;8.798;2023-05-02T00:53:37;100282.38;;;15.01;73.74
61384;BME280;63511;49.346;8.798;2023-05-02T00:56:04;100281.56;;;14.68;74.77
61384;BME280;63511;49.346;8.798;2023-05-02T00:58:32;100291.16;;;14.89;74.03
61384;BME280;63511;49.346;8.798;2023-05-02T01:01:03;100295.44;;;15.08;73.31
61384;BME280;63511;49.346;8.798;2023-05-02T01:03:35;100296.91;;;14.69;74.45
61384;BME280;63511;49.346;8.798;2023-05-02T01:06:07;100292.09;;;14.92;73.62
61384;BME280;63511;49.346;8.798;2023-05-02T01:08:37;100291.22;;;14.91;73.86
61384;BME280;63511;49.346;8.798;2023-05-02T01:11:08;100288.69;;;14.91;73.77
61384;BME280;63511;49.346;8.798;2023-05-02T01:13:40;100296.78;;;14.84;74.11
61384;BME280;63511;49.346;8.798;2023-05-02T01:16:08;100298.03;;;14.58;75.38
61384;BME280;63511;49.346;8.798;2023-05-02T01:18:35;100298.81;;;14.73;74.34
61384;BME280;63511;49.346;8.798;2023-05-02T01:21:05;100299.47;;;14.53;75.50
61384;BME280;63511;49.346;8.798;2023-05-02T01:23:34;100296.44;;;14.76;73.76
61384;BME280;63511;49.346;8.798;2023-05-02T01:26:07;100299.41;;;14.52;75.33
61384;BME280;63511;49.346;8.798;2023-05-02T01:28:54;100300.16;;;14.67;73.98
61384;BME280;63511;49.346;8.798;2023-05-02T01:31:22;100302.59;;;14.48;75.21
61384;BME280;63511;49.346;8.798;2023-05-02T01:33:50;100300.66;;;14.60;74.42
61384;BME280;63511;49.346;8.798;2023-05-02T01:36:17;100299.03;;;14.78;73.48
61384;BME280;63511;49.346;8.798;2023-05-02T01:38:44;100307.00;;;14.52;74.33
61384;BME280;63511;49.346;8.798;2023-05-02T01:41:12;100311.00;;;14.14;74.60
61384;BME280;63511;49.346;8.798;2023-05-02T01:43:39;100316.75;;;13.95;75.61
61384;BME280;63511;49.346;8.798;2023-05-02T01:46:09;100318.84;;;14.19;74.73
61384;BME280;63511;49.346;8.798;2023-05-02T01:48:37;100318.66;;;14.16;74.68
61384;BME280;63511;49.346;8.798;2023-05-02T01:51:04;100329.00;;;13.72;75.55
61384;BME280;63511;49.346;8.798;2023-05-02T01:53:31;100334.47;;;13.79;75.75
61384;BME280;63511;49.346;8.798;2023-05-02T01:55:59;100338.97;;;13.69;75.81
61384;BME280;63511;49.346;8.798;2023-05-02T01:58:27;100337.09;;;13.81;74.96
61384;BME280;63511;49.346;8.798;2023-05-02T02:00:56;100338.38;;;13.89;74.82
61384;BME280;63511;49.346;8.798;2023-05-02T02:03:25;100341.41;;;13.51;76.81
61384;BME280;63511;49.346;8.798;2023-05-02T02:05:52;100350.44;;;13.77;75.55
61384;BME280;63511;49.346;8.798;2023-05-02T02:08:20;100351.25;;;13.61;76.81
61384;BME280;63511;49.346;8.798;2023-05-02T02:10:49;100350.88;;;13.70;76.46
61384;BME280;63511;49.346;8.798;2023-05-02T02:13:21;100351.38;;;13.18;77.86
61384;BME280;63511;49.346;8.798;2023-05-02T02:15:52;100352.91;;;13.60;77.04
61384;BME280;63511;49.346;8.798;2023-05-02T02:18:23;100358.28;;;13.50;76.76
61384;BME280;63511;49.346;8.798;2023-05-02T02:20:52;100364.44;;;13.70;76.00
61384;BME280;63511;49.346;8.798;2023-05-02T02:23:19;100363.59;;;13.55;76.42
61384;BME280;63511;49.346;8.798;2023-05-02T02:25:47;100363.03;;;13.30;77.27
61384;BME280;63511;49.346;8.798;2023-05-02T02:28:15;100369.50;;;13.25;77.61
61384;BME280;63511;49.346;8.798;2023-05-02T02:30:42;100377.53;;;13.47;76.78
61384;BME280;63511;49.346;8.798;2023-05-02T02:33:08;100374.91;;;13.16;77.42
61384;BME280;63511;49.346;8.798;2023-05-02T02:35:36;100373.34;;;13.18;77.15
61384;BME280;63511;49.346;8.798;2023-05-02T02:38:09;100379.63;;;13.39;76.63
61384;BME280;63511;49.346;8.798;2023-05-02T02:40:37;100391.34;;;13.23;77.90
61384;BME280;63511;49.346;8.798;2023-05-02T02:43:07;100384.44;;;13.35;77.44
61384;BME280;63511;49.346;8.798;2023-05-02T02:45:36;100388.38;;;13.30;77.81
61384;BME280;63511;49.346;8.798;2023-05-02T02:48:08;100392.78;;;13.63;76.10
61384;BME280;63511;49.346;8.798;2023-05-02T02:50:37;100395.72;;;13.54;76.49
61384;BME280;63511;49.346;8.798;2023-05-02T02:53:11;100396.84;;;13.59;75.75
61384;BME280;63511;49.346;8.798;2023-05-02T02:55:43;100395.44;;;13.50;76.34
61384;BME280;63511;49.346;8.798;2023-05-02T02:58:17;100397.03;;;13.33;77.02
61384;BME280;63511;49.346;8.798;2023-05-02T03:00:45;100410.06;;;13.25;77.54
61384;BME280;63511;49.346;8.798;2023-05-02T03:03:12;100409.81;;;13.35;76.92
61384;BME280;63511;49.346;8.798;2023-05-02T03:05:40;100413.75;;;13.15;78.21
61384;BME280;63511;49.346;8.798;2023-05-02T03:08:07;100408.13;;;13.50;77.04
61384;BME280;63511;49.346;8.798;2023-05-02T03:10:35;100414.59;;;13.59;76.87
61384;BME280;63511;49.346;8.798;2023-05-02T03:13:02;100420.72;;;13.78;76.34
61384;BME280;63511;49.346;8.798;2023-05-02T03:15:45;100421.91;;;13.84;76.06
61384;BME280;63511;49.346;8.798;2023-05-02T03:18:19;100421.41;;;13.75;76.05
61384;BME280;63511;49.346;8.798;2023-05-02T03:20:45;100420.19;;;13.83;75.47
61384;BME280;63511;49.346;8.798;2023-05-02T03:23:12;100421.22;;;13.87;75.66
61384;BME280;63511;49.346;8.798;2023-05-02T03:25:40;100421.59;;;13.63;77.38
61384;BME280;63511;49.346;8.798;2023-05-02T03:28:06;100421.47;;;13.91;75.92
61384;BME280;63511;49.346;8.798;2023-05-02T03:30:33;100424.69;;;13.89;75.50
61384;BME280;63511;49.346;8.798;2023-05-02T03:32:59;100421.63;;;13.94;75.23
61384;BME280;63511;49.346;8.798;2023-05-02T03:35:28;100425.16;;;13.82;75.85
61384;BME280;63511;49.346;8.798;2023-05-02T03:37:55;100415.81;;;13.81;75.81
61384;BME280;63511;49.346;8.798;2023-05-02T03:40:21;100416.97;;;13.56;77.34
61384;BME280;63511;49.346;8.798;2023-05-02T03:42:49;100421.16;;;13.71;76.82
61384;BME280;63511;49.346;8.798;2023-05-02T03:45:16;100429.19;;;13.78;75.85
61384;BME280;63511;49.346;8.798;2023-05-02T03:47:43;100432.53;;;13.77;75.99
61384;BME280;63511;49.346;8.798;2023-05-02T03:50:09;100427.66;;;13.51;76.89
61384;BME280;63511;49.346;8.798;2023-05-02T03:52:36;100432.19;;;13.27;77.66
61384;BME280;63511;49.346;8.798;2023-05-02T03:55:02;100433.06;;;13.42;77.00
61384;BME280;63511;49.346;8.798;2023-05-02T03:57:30;100436.94;;;13.50;76.52
61384;BME280;63511;49.346;8.798;2023-05-02T03:59:58;100438.06;;;13.26;76.85
61384;BME280;63511;49.346;8.798;2023-05-02T04:02:24;100446.09;;;13.19;77.81
61384;BME280;63511;49.346;8.798;2023-05-02T04:04:51;100454.94;;;12.98;77.92
61384;BME280;63511;49.346;8.798;2023-05-02T04:07:17;100451.19;;;13.06;77.71
61384;BME280;63511;49.346;8.798;2023-05-02T04:09:44;100450.81;;;13.13;76.94
61384;BME280;63511;49.346;8.798;2023-05-02T04:12:10;100459.13;;;12.97;77.46
61384;BME280;63511;49.346;8.798;2023-05-02T04:14:37;100455.22;;;13.02;76.65
61384;BME280;63511;49.346;8.798;2023-05-02T04:17:05;100460.00;;;12.98;76.38
61384;BME280;63511;49.346;8.798;2023-05-02T04:19:32;100468.94;;;13.06;75.95
61384;BME280;63511;49.346;8.798;2023-05-02T04:21:59;100475.06;;;13.09;76.34
61384;BME280;63511;49.346;8.798;2023-05-02T04:24:26;100478.97;;;12.90;76.60
61384;BME280;63511;49.346;8.798;2023-05-02T04:26:53;100485.84;;;13.05;76.46
61384;BME280;63511;49.346;8.798;2023-05-02T04:29:19;100488.75;;;12.84;77.14
61384;BME280;63511;49.346;8.798;2023-05-02T04:31:46;100488.25;;;12.76;77.62
61384;BME280;63511;49.346;8.798;2023-05-02T04:34:14;100488.22;;;12.61;78.47
61384;BME280;63511;49.346;8.798;2023-05-02T04:36:41;100497.25;;;12.99;77.07
61384;BME280;63511;49.346;8.798;2023-05-02T04:39:07;100490.75;;;12.89;77.57
61384;BME280;63511;49.346;8.798;2023-05-02T04:41:34;100501.84;;;12.91;78.47
61384;BME280;63511;49.346;8.798;2023-05-02T04:44:01;100509.50;;;13.19;77.25
61384;BME280;63511;49.346;8.798;2023-05-02T04:46:28;100516.84;;;13.01;77.52
61384;BME280;63511;49.346;8.798;2023-05-02T04:48:54;100511.63;;;13.26;76.72
61384;BME280;63511;49.346;8.798;2023-05-02T04:51:22;100521.03;;;13.14;77.08
61384;BME280;63511;49.346;8.798;2023-05-02T04:53:49;100526.00;;;13.12;78.34
61384;BME280;63511;49.346;8.798;2023-05-02T04:56:15;100528.41;;;13.39;76.66
61384;BME280;63511;49.346;8.798;2023-05-02T04:58:42;100533.63;;;13.27;77.31
61384;BME280;63511;49.346;8.798;2023-05-02T05:01:09;100534.91;;;13.48;76.36
61384;BME280;63511;49.346;8.798;2023-05-02T05:03:35;100546.16;;;13.39;76.79
61384;BME280;63511;49.346;8.798;2023-05-02T05:06:02;100544.41;;;13.38;77.03
61384;BME280;63511;49.346;8.798;2023-05-02T05:08:30;100537.59;;;13.09;78.76
61384;BME280;63511;49.346;8.798;2023-05-02T05:10:57;100546.88;;;13.36;77.89
61384;BME280;63511;49.346;8.798;2023-05-02T05:13:24;100548.69;;;13.11;79.50
61384;BME280;63511;49.346;8.798;2023-05-02T05:15:51;100549.88;;;13.73;77.33
61384;BME280;63511;49.346;8.798;2023-05-02T05:18:17;100545.16;;;13.94;76.32
61384;BME280;63511;49.346;8.798;2023-05-02T05:20:44;100551.81;;;14.07;75.94
61384;BME280;63511;49.346;8.798;2023-05-02T05:23:10;100557.63;;;14.04;76.21
61384;BME280;63511;49.346;8.798;2023-05-02T05:25:38;100554.25;;;14.20;75.91
61384;BME280;63511;49.346;8.798;2023-05-02T05:28:05;100556.19;;;14.38;75.90
61384;BME280;63511;49.346;8.798;2023-05-02T05:30:32;100567.50;;;14.14;76.50
61384;BME280;63511;49.346;8.798;2023-05-02T05:32:58;100565.09;;;14.32;76.03
61384;BME280;63511;49.346;8.798;2023-05-02T05:35:25;100563.72;;;14.22;75.91
61384;BME280;63511;49.346;8.798;2023-05-02T05:37:51;100573.56;;;14.62;74.66
61384;BME280;63511;49.346;8.798;2023-05-02T05:40:18;100584.78;;;14.96;73.83
61384;BME280;63511;49.346;8.798;2023-05-02T05:42:46;100583.34;;;15.01;74.34
61384;BME280;63511;49.346;8.798;2023-05-02T05:45:13;100588.38;;;15.16;74.28
61384;BME280;63511;49.346;8.798;2023-05-02T05:47:41;100582.25;;;15.12;74.33
61384;BME280;63511;49.346;8.798;2023-05-02T05:50:07;100594.31;;;15.00;74.88
61384;BME280;63511;49.346;8.798;2023-05-02T05:52:35;100593.63;;;15.19;73.50
61384;BME280;63511;49.346;8.798;2023-05-02T05:55:01;100604.03;;;15.40;72.96
61384;BME280;63511;49.346;8.798;2023-05-02T05:57:28;100600.66;;;15.55;72.75
61384;BME280;63511;49.346;8.798;2023-05-02T05:59:56;100593.00;;;15.71;71.64
61384;BME280;63511;49.346;8.798;2023-05-02T06:02:23;100589.88;;;15.77;73.29
61384;BME280;63511;49.346;8.798;2023-05-02T06:04:50;100602.47;;;15.74;72.60
61384;BME280;63511;49.346;8.798;2023-05-02T06:07:16;100600.06;;;15.77;70.16
61384;BME280;63511;49.346;8.798;2023-05-02T06:09:43;100611.19;;;15.30;73.65
61384;BME280;63511;49.346;8.798;2023-05-02T06:12:09;100609.19;;;15.09;74.13
61384;BME280;63511;49.346;8.798;2023-05-02T06:14:36;100608.25;;;15.07;71.61
61384;BME280;63511;49.346;8.798;2023-05-02T06:17:04;100626.28;;;15.58;71.13
61384;BME280;63511;49.346;8.798;2023-05-02T06:19:30;100623.66;;;15.73;71.63
61384;BME280;63511;49.346;8.798;2023-05-02T06:21:59;100628.47;;;16.01;70.75
61384;BME280;63511;49.346;8.798;2023-05-02T06:24:26;100626.38;;;16.10;70.48
61384;BME280;63511;49.346;8.798;2023-05-02T06:26:53;100631.00;;;16.35;70.26
61384;BME280;63511;49.346;8.798;2023-05-02T06:29:19;100632.97;;;16.40;67.69
61384;BME280;63511;49.346;8.798;2023-05-02T06:31:46;100636.72;;;16.65;67.44
61384;BME280;63511;49.346;8.798;2023-05-02T06:34:16;100634.47;;;16.71;65.67
61384;BME280;63511;49.346;8.798;2023-05-02T06:36:42;100644.44;;;16.66;65.40
61384;BME280;63511;49.346;8.798;2023-05-02T06:39:09;100641.22;;;16.70;66.01
61384;BME280;63511;49.346;8.798;2023-05-02T06:41:36;100646.19;;;16.67;66.77
61384;BME280;63511;49.346;8.798;2023-05-02T06:44:03;100646.50;;;16.39;65.71
61384;BME280;63511;49.346;8.798;2023-05-02T06:46:29;100649.97;;;16.24;66.33
61384;BME280;63511;49.346;8.798;2023-05-02T06:48:56;100653.31;;;16.56;65.08
61384;BME280;63511;49.346;8.798;2023-05-02T06:51:24;100651.13;;;16.64;64.65
61384;BME280;63511;49.346;8.798;2023-05-02T06:53:51;100653.53;;;16.09;65.75
61384;BME280;63511;49.346;8.798;2023-05-02T06:56:18;100652.94;;;16.15;65.94
61384;BME280;63511;49.346;8.798;2023-05-02T06:58:44;100665.91;;;15.69;66.49
61384;BME280;63511;49.346;8.798;2023-05-02T07:01:11;100659.59;;;15.95;66.41
61384;BME280;63511;49.346;8.798;2023-05-02T07:03:37;100651.53;;;16.55;65.25
61384;BME280;63511;49.346;8.798;2023-05-02T07:06:04;100660.78;;;16.53;64.55
61384;BME280;63511;49.346;8.798;2023-05-02T07:08:32;100665.09;;;16.37;64.82
61384;BME280;63511;49.346;8.798;2023-05-02T07:10:59;100653.06;;;16.68;64.67
61384;BME280;63511;49.346;8.798;2023-05-02T07:13:26;100656.00;;;17.13;63.73
61384;BME280;63511;49.346;8.798;2023-05-02T07:15:52;100658.94;;;17.03;63.17
61384;BME280;63511;49.346;8.798;2023-05-02T07:18:20;100664.47;;;16.76;62.81
61384;BME280;63511;49.346;8.798;2023-05-02T07:20:46;100667.03;;;16.76;62.69
61384;BME280;63511;49.346;8.798;2023-05-02T07:23:16;100670.06;;;16.69;62.89
61384;BME280;63511;49.346;8.798;2023-05-02T07:25:44;100660.28;;;17.51;62.61
61384;BME280;63511;49.346;8.798;2023-05-02T07:28:11;100661.75;;;16.55;63.15
61384;BME280;63511;49.346;8.798;2023-05-02T07:30:37;100665.16;;;16.72;63.54
61384;BME280;63511;49.346;8.798;2023-05-02T07:33:03;100669.25;;;16.19;63.69
61384;BME280;63511;49.346;8.798;2023-05-02T07:35:30;100665.09;;;16.54;63.63
61384;BME280;63511;49.346;8.798;2023-05-02T07:37:57;100663.47;;;16.73;63.64
61384;BME280;63511;49.346;8.798;2023-05-02T07:40:23;100667.34;;;17.56;63.26
61384;BME280;63511;49.346;8.798;2023-05-02T07:42:51;100671.50;;;17.35;62.19
61384;BME280;63511;49.346;8.798;2023-05-02T07:45:18;100674.03;;;16.63;62.04
61384;BME280;63511;49.346;8.798;2023-05-02T07:47:44;100674.69;;;16.94;61.97
61384;BME280;63511;49.346;8.798;2023-05-02T07:50:11;100670.44;;;16.94;61.84
61384;BME280;63511;49.346;8.798;2023-05-02T07:52:38;100677.94;;;16.56;62.22
61384;BME280;63511;49.346;8.798;2023-05-02T07:55:05;100676.28;;;16.74;62.68
61384;BME280;63511;49.346;8.798;2023-05-02T07:57:32;100678.09;;;17.12;61.50
61384;BME280;63511;49.346;8.798;2023-05-02T08:00:00;100680.16;;;17.38;61.36
61384;BME280;63511;49.346;8.798;2023-05-02T08:02:26;100675.16;;;17.59;60.65
61384;BME280;63511;49.346;8.798;2023-05-02T08:04:53;100674.47;;;17.26;60.61
61384;BME280;63511;49.346;8.798;2023-05-02T08:07:20;100684.75;;;17.46;60.36
61384;BME280;63511;49.346;8.798;2023-05-02T08:09:47;100684.34;;;17.56;60.21
61384;BME280;63511;49.346;8.798;2023-05-02T08:12:13;100681.31;;;17.82;59.45
61384;BME280;63511;49.346;8.798;2023-05-02T08:14:40;100684.16;;;17.51;59.25
61384;BME280;63511;49.346;8.798;2023-05-02T08:17:08;100688.66;;;17.95;58.51
61384;BME280;63511;49.346;8.798;2023-05-02T08:19:35;100688.78;;;17.98;60.90
61384;BME280;63511;49.346;8.798;2023-05-02T08:22:02;100683.59;;;18.56;60.06
61384;BME280;63511;49.346;8.798;2023-05-02T08:24:28;100685.47;;;18.60;58.65
61384;BME280;63511;49.346;8.798;2023-05-02T08:26:55;100691.09;;;18.32;59.01
61384;BME280;63511;49.346;8.798;2023-05-02T08:29:22;100688.38;;;18.90;57.96
61384;BME280;63511;49.346;8.798;2023-05-02T08:31:48;100698.78;;;18.32;59.09
61384;BME280;63511;49.346;8.798;2023-05-02T08:34:16;100694.78;;;18.58;58.63
61384;BME280;63511;49.346;8.798;2023-05-02T08:36:46;100689.25;;;18.49;57.61
61384;BME280;63511;49.346;8.798;2023-05-02T08:39:12;100700.44;;;18.11;57.43
61384;BME280;63511;49.346;8.798;2023-05-02T08:41:39;100704.84;;;18.15;58.47
61384;BME280;63511;49.346;8.798;2023-05-02T08:44:05;100704.44;;;18.25;56.95
61384;BME280;63511;49.346;8.798;2023-05-02T08:46:34;100705.06;;;18.40;56.90
61384;BME280;63511;49.346;8.798;2023-05-02T08:49:00;100699.03;;;18.38;56.34
61384;BME280;63511;49.346;8.798;2023-05-02T08:51:29;100694.72;;;18.37;56.36
61384;BME280;63511;49.346;8.798;2023-05-02T08:53:57;100703.44;;;18.61;55.24
61384;BME280;63511;49.346;8.798;2023-05-02T08:56:25;100704.50;;;19.09;56.67
61384;BME280;63511;49.346;8.798;2023-05-02T08:58:51;100705.47;;;19.12;53.83
61384;BME280;63511;49.346;8.798;2023-05-02T09:01:18;100711.94;;;19.46;54.07
61384;BME280;63511;49.346;8.798;2023-05-02T09:03:47;100713.03;;;19.31;57.61
61384;BME280;63511;49.346;8.798;2023-05-02T09:06:15;100707.63;;;19.45;54.83
61384;BME280;63511;49.346;8.798;2023-05-02T09:08:44;100706.91;;;19.72;53.43
61384;BME280;63511;49.346;8.798;2023-05-02T09:11:12;100708.25;;;19.86;54.87
61384;BME280;63511;49.346;8.798;2023-05-02T09:13:39;100708.88;;;19.34;57.10
61384;BME280;63511;49.346;8.798;2023-05-02T09:16:07;100698.53;;;20.25;54.70
61384;BME280;63511;49.346;8.798;2023-05-02T09:18:35;100710.47;;;20.24;52.83
61384;BME280;63511;49.346;8.798;2023-05-02T09:21:05;100710.38;;;20.45;51.97
61384;BME280;63511;49.346;8.798;2023-05-02T09:23:37;100717.84;;;19.01;55.71
61384;BME280;63511;49.346;8.798;2023-05-02T09:26:15;100717.13;;;19.48;55.61
61384;BME280;63511;49.346;8.798;2023-05-02T09:28:46;100722.28;;;18.63;56.41
61384;BME280;63511;49.346;8.798;2023-05-02T09:33:57;100721.88;;;19.85;53.93
61384;BME280;63511;49.346;8.798;2023-05-02T09:36:37;100729.50;;;19.37;55.73
61384;BME280;63511;49.346;8.798;2023-05-02T09:39:07;100719.66;;;19.26;55.24
61384;BME280;63511;49.346;8.798;2023-05-02T09:41:39;100721.34;;;18.82;55.50
61384;BME280;63511;49.346;8.798;2023-05-02T09:44:08;100724.94;;;18.87;54.23
61384;BME280;63511;49.346;8.798;2023-05-02T09:46:38;100724.41;;;18.74;52.87
61384;BME280;63511;49.346;8.798;2023-05-02T09:49:05;100728.75;;;18.76;52.26
61384;BME280;63511;49.346;8.798;2023-05-02T09:51:31;100730.06;;;18.87;53.82
61384;BME280;63511;49.346;8.798;2023-05-02T09:53:58;100728.44;;;19.10;55.20
61384;BME280;63511;49.346;8.798;2023-05-02T09:56:24;100742.72;;;18.04;55.83
61384;BME280;63511;49.346;8.798;2023-05-02T09:58:53;100741.59;;;17.78;57.24
61384;BME280;63511;49.346;8.798;2023-05-02T10:01:36;100744.16;;;18.17;57.23
61384;BME280;63511;49.346;8.798;2023-05-02T10:04:03;100746.22;;;18.65;54.95
61384;BME280;63511;49.346;8.798;2023-05-02T10:06:30;100735.81;;;18.82;55.55
61384;BME280;63511;49.346;8.798;2023-05-02T10:08:58;100747.94;;;18.86;54.06
61384;BME280;63511;49.346;8.798;2023-05-02T10:11:24;100741.59;;;19.19;53.83
61384;BME280;63511;49.346;8.798;2023-05-02T10:13:52;100751.31;;;19.28;51.62
61384;BME280;63511;49.346;8.798;2023-05-02T10:16:21;100753.50;;;18.16;53.42
61384;BME280;63511;49.346;8.798;2023-05-02T10:18:51;100749.41;;;19.22;52.05
61384;BME280;63511;49.346;8.798;2023-05-02T10:21:23;100740.94;;;19.45;52.33
61384;BME280;63511;49.346;8.798;2023-05-02T10:23:51;100747.31;;;19.79;51.69
61384;BME280;63511;49.346;8.798;2023-05-02T10:26:18;100745.53;;;19.11;53.17
61384;BME280;63511;49.346;8.798;2023-05-02T10:28:46;100735.00;;;19.92;51.83
61384;BME280;63511;49.346;8.798;2023-05-02T10:31:15;100750.44;;;19.48;53.05
61384;BME280;63511;49.346;8.798;2023-05-02T10:33:41;100753.91;;;18.86;52.80
61384;BME280;63511;49.346;8.798;2023-05-02T10:36:09;100756.09;;;18.56;52.76
61384;BME280;63511;49.346;8.798;2023-05-02T10:38:37;100755.66;;;18.87;51.68
61384;BME280;63511;49.346;8.798;2023-05-02T10:41:05;100747.59;;;19.20;51.19
61384;BME280;63511;49.346;8.798;2023-05-02T10:43:34;100746.00;;;19.01;50.73
61384;BME280;63511;49.346;8.798;2023-05-02T10:46:01;100746.31;;;18.67;52.67
61384;BME280;63511;49.346;8.798;2023-05-02T10:48:30;100744.16;;;18.98;51.58
61384;BME280;63511;49.346;8.798;2023-05-02T10:50:57;100739.22;;;19.03;51.13
61384;BME280;63511;49.346;8.798;2023-05-02T10:53:29;100736.00;;;19.29;50.85
61384;BME280;63511;49.346;8.798;2023-05-02T10:56:12;100730.13;;;20.00;52.31
61384;BME280;63511;49.346;8.798;2023-05-02T10:58:39;100729.72;;;19.66;49.98
61384;BME280;63511;49.346;8.798;2023-05-02T11:03:53;100733.72;;;19.58;49.88
61384;BME280;63511;49.346;8.798;2023-05-02T11:06:21;100728.06;;;19.90;49.72
61384;BME280;63511;49.346;8.798;2023-05-02T11:08:48;100740.56;;;19.59;50.58
61384;BME280;63511;49.346;8.798;2023-05-02T11:14:40;100739.94;;;19.43;52.43
61384;BME280;63511;49.346;8.798;2023-05-02T11:17:05;100737.66;;;19.72;51.63
61384;BME280;63511;49.346;8.798;2023-05-02T11:25:07;100729.41;;;20.52;49.76
61384;BME280;63511;49.346;8.798;2023-05-02T11:27:53;100731.31;;;19.62;50.21
61384;BME280;63511;49.346;8.798;2023-05-02T11:30:35;100736.94;;;19.76;49.70
61384;BME280;63511;49.346;8.798;2023-05-02T11:33:11;100727.44;;;20.21;49.07
61384;BME280;63511;49.346;8.798;2023-05-02T11:35:41;100735.00;;;19.69;50.06
61384;BME280;63511;49.346;8.798;2023-05-02T11:38:09;100740.94;;;20.15;49.63
61384;BME280;63511;49.346;8.798;2023-05-02T11:40:39;100732.31;;;20.62;48.25
61384;BME280;63511;49.346;8.798;2023-05-02T11:43:12;100722.16;;;20.40;47.74
61384;BME280;63511;49.346;8.798;2023-05-02T11:45:42;100726.28;;;20.60;50.00
61384;BME280;63511;49.346;8.798;2023-05-02T11:48:10;100728.56;;;20.53;47.30
61384;BME280;63511;49.346;8.798;2023-05-02T11:50:40;100730.47;;;20.09;48.70
61384;BME280;63511;49.346;8.798;2023-05-02T11:53:14;100722.81;;;20.11;49.39
61384;BME280;63511;49.346;8.798;2023-05-02T11:55:59;100726.50;;;20.68;51.93
61384;BME280;63511;49.346;8.798;2023-05-02T11:58:27;100718.50;;;20.59;50.26
61384;BME280;63511;49.346;8.798;2023-05-02T12:00:54;100730.59;;;19.88;47.17
61384;BME280;63511;49.346;8.798;2023-05-02T12:03:26;100729.59;;;20.09;47.03
61384;BME280;63511;49.346;8.798;2023-05-02T12:05:53;100722.34;;;21.24;49.59
61384;BME280;63511;49.346;8.798;2023-05-02T12:08:20;100724.03;;;20.20;44.85
61384;BME280;63511;49.346;8.798;2023-05-02T12:10:48;100721.31;;;20.93;47.84
61384;BME280;63511;49.346;8.798;2023-05-02T12:13:17;100724.06;;;21.25;46.05
61384;BME280;63511;49.346;8.798;2023-05-02T12:15:44;100727.25;;;21.44;45.88
61384;BME280;63511;49.346;8.798;2023-05-02T12:18:11;100726.19;;;20.84;45.99
61384;BME280;63511;49.346;8.798;2023-05-02T12:20:37;100745.19;;;19.91;45.71
61384;BME280;63511;49.346;8.798;2023-05-02T12:23:04;100732.31;;;20.37;46.51
61384;BME280;63511;49.346;8.798;2023-05-02T12:25:35;100737.75;;;20.71;46.56
61384;BME280;63511;49.346;8.798;2023-05-02T12:28:02;100746.94;;;20.65;47.18
61384;BME280;63511;49.346;8.798;2023-05-02T12:30:30;100739.72;;;20.53;46.53
61384;BME280;63511;49.346;8.798;2023-05-02T12:32:57;100730.31;;;21.33;47.15
61384;BME280;63511;49.346;8.798;2023-05-02T12:35:25;100724.72;;;21.17;45.57
61384;BME280;63511;49.346;8.798;2023-05-02T12:37:52;100736.53;;;20.35;46.06
61384;BME280;63511;49.346;8.798;2023-05-02T12:40:20;100727.41;;;20.95;44.03
61384;BME280;63511;49.346;8.798;2023-05-02T12:43:00;100730.34;;;21.07;42.72
61384;BME280;63511;49.346;8.798;2023-05-02T12:45:29;100734.03;;;20.89;44.42
61384;BME280;63511;49.346;8.798;2023-05-02T12:47:58;100735.91;;;20.67;44.55
61384;BME280;63511;49.346;8.798;2023-05-02T12:50:35;100735.16;;;20.97;44.50
61384;BME280;63511;49.346;8.798;2023-05-02T12:53:02;100745.72;;;20.30;43.39
61384;BME280;63511;49.346;8.798;2023-05-02T12:55:28;100738.81;;;21.03;43.90
61384;BME280;63511;49.346;8.798;2023-05-02T12:57:59;100746.72;;;21.11;45.33
61384;BME280;63511;49.346;8.798;2023-05-02T13:00:26;100734.44;;;21.28;44.30
61384;BME280;63511;49.346;8.798;2023-05-02T13:02:54;100734.34;;;21.25;43.00
61384;BME280;63511;49.346;8.798;2023-05-02T13:05:21;100735.97;;;21.51;45.43
61384;BME280;63511;49.346;8.798;2023-05-02T13:07:48;100735.59;;;21.67;42.76
61384;BME280;63511;49.346;8.798;2023-05-02T13:10:15;100729.22;;;20.99;41.57